createdAt,value
2023-05-02T00:01:16.920Z,54.47
2023-05-02T00:03:44.148Z,54.52
2023-05-02T00:06:12.205Z,55.14
2023-05-02T00:08:39.157Z,55.02
2023-05-02T00:11:06.058Z,54.95
2023-05-02T00:13:32.904Z,54.36
2023-05-02T00:15:59.821Z,54.62
2023-05-02T00:18:27.059Z,55.03
2023-05-02T00:20:55.295Z,54.88
2023-05-02T00:23:22.248Z,55.20
2023-05-02T00:25:49.262Z,55.18
2023-05-02T00:28:16.127Z,55.95
2023-05-02T00:30:46.584Z,55.69
2023-05-02T00:33:15.097Z,55.10
2023-05-02T00:35:42.280Z,54.81
2023-05-02T00:38:09.522Z,54.81
2023-05-02T00:40:46.498Z,55.25
2023-05-02T00:43:14.096Z,56.05
2023-05-02T00:45:41.843Z,55.77
2023-05-02T00:48:11.754Z,55.22
2023-05-02T00:50:42.950Z,55.45
2023-05-02T00:53:10.556Z,55.42
2023-05-02T00:55:37.689Z,55.50
2023-05-02T00:58:11.908Z,55.49
2023-05-02T01:01:00.828Z,55.38
2023-05-02T01:03:42.570Z,55.80
2023-05-02T01:06:12.197Z,55.83
2023-05-02T01:08:52.886Z,55.73
2023-05-02T01:11:27.034Z,55.75
2023-05-02T01:13:53.906Z,56.05
2023-05-02T01:16:21.234Z,56.08
2023-05-02T01:18:48.328Z,56.30
2023-05-02T01:21:15.584Z,56.27
2023-05-02T01:23:57.741Z,56.53
2023-05-02T01:26:33.792Z,56.93
2023-05-02T01:29:04.852Z,57.05
2023-05-02T01:31:43.715Z,57.04
2023-05-02T01:34:11.125Z,56.84
2023-05-02T01:36:43.067Z,56.74
2023-05-02T01:39:11.098Z,56.84
2023-05-02T01:41:38.281Z,56.73
2023-05-02T01:44:05.187Z,56.97
2023-05-02T01:46:34.180Z,56.86
2023-05-02T01:49:02.657Z,56.97
2023-05-02T01:51:32.013Z,57.06
2023-05-02T01:53:59.927Z,57.23
2023-05-02T01:56:26.865Z,57.28
2023-05-02T01:58:54.099Z,57.33
2023-05-02T02:01:21.026Z,57.35
2023-05-02T02:03:47.917Z,57.46
2023-05-02T02:06:14.866Z,57.41
2023-05-02T02:08:42.011Z,57.28
2023-05-02T02:11:10.244Z,57.37
2023-05-02T02:13:44.836Z,57.40
2023-05-02T02:16:11.772Z,57.39
2023-05-02T02:18:38.913Z,57.39
2023-05-02T02:21:09.864Z,57.25
2023-05-02T02:23:36.997Z,57.62
2023-05-02T02:26:04.109Z,57.72
2023-05-02T02:28:30.987Z,57.80
2023-05-02T02:30:57.961Z,57.85
2023-05-02T02:33:26.167Z,58.05
2023-05-02T02:36:01.084Z,58.35
2023-05-02T02:38:52.824Z,58.22
2023-05-02T02:41:23.633Z,58.33
2023-05-02T02:43:53.571Z,58.39
2023-05-02T02:46:23.684Z,58.41
2023-05-02T02:49:19.704Z,58.36
2023-05-02T02:52:05.848Z,57.80
2023-05-02T02:54:42.378Z,57.41
2023-05-02T02:57:33.969Z,57.51
2023-05-02T03:00:33.361Z,57.36
2023-05-02T03:03:00.705Z,57.68
2023-05-02T03:05:27.734Z,57.65
2023-05-02T03:07:55.969Z,58.78
2023-05-02T03:10:23.129Z,59.63
2023-05-02T03:12:50.201Z,60.81
2023-05-02T03:15:36.409Z,61.06
2023-05-02T03:18:03.721Z,61.75
2023-05-02T03:20:30.676Z,62.27
2023-05-02T03:22:59.079Z,62.63
2023-05-02T03:25:26.017Z,62.97
2023-05-02T03:27:54.257Z,62.98
2023-05-02T03:30:21.282Z,63.30
2023-05-02T03:32:48.253Z,63.93
2023-05-02T03:35:16.328Z,64.42
2023-05-02T03:37:43.531Z,64.77
2023-05-02T03:40:10.856Z,64.66
2023-05-02T03:42:41.458Z,64.57
2023-05-02T03:45:14.786Z,64.34
2023-05-02T03:47:42.376Z,64.24
2023-05-02T03:50:09.713Z,64.27
2023-05-02T03:52:39.289Z,64.21
2023-05-02T03:55:07.943Z,64.18
2023-05-02T03:57:35.077Z,64.18
2023-05-02T04:00:02.787Z,63.98
2023-05-02T04:02:38.682Z,63.82
2023-05-02T04:05:08.782Z,64.14
2023-05-02T04:07:36.374Z,63.88
2023-05-02T04:10:05.835Z,64.03
2023-05-02T04:12:36.753Z,64.19
2023-05-02T04:15:04.181Z,64.59
2023-05-02T04:17:31.136Z,64.32
2023-05-02T04:19:58.444Z,63.95
2023-05-02T04:22:27.701Z,64.15
2023-05-02T04:25:00.706Z,64.85
2023-05-02T04:27:28.687Z,64.85
2023-05-02T04:29:56.495Z,64.72
2023-05-02T04:32:23.608Z,64.67
2023-05-02T04:34:50.821Z,64.62
2023-05-02T04:37:18.336Z,64.68
2023-05-02T04:39:46.488Z,64.57
2023-05-02T04:42:23.913Z,64.07
2023-05-02T04:45:08.101Z,63.48
2023-05-02T04:47:34.990Z,62.83
2023-05-02T04:50:02.198Z,61.64
2023-05-02T04:52:30.340Z,60.13
2023-05-02T04:54:57.541Z,58.60
2023-05-02T04:57:24.936Z,57.77
2023-05-02T04:59:55.506Z,56.77
2023-05-02T05:02:23.267Z,56.01
2023-05-02T05:04:50.499Z,55.43
2023-05-02T05:07:18.771Z,54.83
2023-05-02T05:09:47.023Z,54.01
2023-05-02T05:12:14.162Z,53.70
2023-05-02T05:14:41.406Z,53.59
2023-05-02T05:17:08.342Z,53.65
2023-05-02T05:19:35.372Z,53.07
2023-05-02T05:22:02.368Z,52.58
2023-05-02T05:24:29.344Z,52.44
2023-05-02T05:26:57.698Z,51.85
2023-05-02T05:29:24.704Z,51.68
2023-05-02T05:31:51.857Z,51.39
2023-05-02T05:34:20.309Z,50.68
2023-05-02T05:36:48.320Z,50.31
2023-05-02T05:39:16.880Z,50.37
2023-05-02T05:41:46.738Z,50.28
2023-05-02T05:44:14.000Z,50.10
2023-05-02T05:46:40.940Z,49.90
2023-05-02T05:49:09.758Z,49.68
2023-05-02T05:51:37.011Z,49.56
2023-05-02T05:54:04.354Z,49.54
2023-05-02T05:56:31.656Z,49.55
2023-05-02T05:59:09.689Z,49.62
2023-05-02T06:01:43.563Z,49.33
2023-05-02T06:04:12.291Z,49.09
2023-05-02T06:06:42.643Z,49.50
2023-05-02T06:09:09.895Z,49.14
2023-05-02T06:11:38.625Z,48.65
2023-05-02T06:14:06.568Z,48.36
2023-05-02T06:16:36.684Z,48.50
2023-05-02T06:19:03.949Z,48.29
2023-05-02T06:21:31.535Z,48.21
2023-05-02T06:24:01.857Z,47.57
2023-05-02T06:26:29.028Z,47.34
2023-05-02T06:28:59.257Z,46.74
2023-05-02T06:31:26.303Z,46.53
2023-05-02T06:33:53.454Z,46.54
2023-05-02T06:36:22.774Z,46.11
2023-05-02T06:38:50.679Z,45.65
2023-05-02T06:41:18.444Z,45.24
2023-05-02T06:43:49.709Z,45.06
2023-05-02T06:46:17.645Z,45.00
2023-05-02T06:48:44.780Z,44.55
2023-05-02T06:51:12.036Z,44.05
2023-05-02T06:53:39.195Z,44.03
2023-05-02T06:56:08.256Z,43.48
2023-05-02T06:58:38.578Z,42.72
2023-05-02T07:01:05.859Z,42.28
2023-05-02T07:03:37.443Z,42.00
2023-05-02T07:06:06.121Z,41.18
2023-05-02T07:08:33.050Z,40.16
2023-05-02T07:11:00.489Z,39.14
2023-05-02T07:13:27.588Z,38.75
2023-05-02T07:15:54.709Z,38.44
2023-05-02T07:18:22.293Z,37.63
2023-05-02T07:20:55.363Z,37.07
2023-05-02T07:23:27.171Z,35.91
2023-05-02T07:25:54.229Z,35.18
2023-05-02T07:28:21.643Z,34.41
2023-05-02T07:30:51.885Z,34.15
2023-05-02T07:33:19.105Z,33.69
2023-05-02T07:35:46.205Z,34.15
2023-05-02T07:38:13.786Z,35.22
2023-05-02T07:40:41.078Z,34.95
2023-05-02T07:43:09.930Z,35.21
2023-05-02T07:45:38.154Z,33.52
2023-05-02T07:48:05.431Z,33.32
2023-05-02T07:50:32.459Z,32.83
2023-05-02T07:53:02.044Z,32.23
2023-05-02T07:55:30.675Z,32.45
2023-05-02T07:57:57.831Z,32.58
2023-05-02T08:00:24.946Z,33.03
2023-05-02T08:02:52.402Z,32.83
2023-05-02T08:05:19.795Z,31.84
2023-05-02T08:07:47.151Z,32.01
2023-05-02T08:10:14.132Z,31.45
2023-05-02T08:12:42.033Z,30.55
2023-05-02T08:15:10.728Z,30.51
2023-05-02T08:17:42.350Z,33.40
2023-05-02T08:20:13.335Z,38.33
2023-05-02T08:22:40.755Z,39.47
2023-05-02T08:25:09.062Z,39.96
2023-05-02T08:27:37.011Z,39.97
2023-05-02T08:30:04.854Z,36.80
2023-05-02T08:32:33.163Z,34.33
2023-05-02T08:35:00.242Z,36.75
2023-05-02T08:37:30.102Z,38.01
2023-05-02T08:40:05.148Z,38.97
2023-05-02T08:42:37.661Z,40.27
2023-05-02T08:45:07.464Z,40.79
2023-05-02T08:47:34.564Z,40.84
2023-05-02T08:50:06.202Z,40.17
2023-05-02T08:52:34.249Z,39.36
2023-05-02T08:55:02.263Z,40.04
2023-05-02T08:57:30.815Z,41.36
2023-05-02T08:59:58.611Z,42.27
2023-05-02T09:02:53.656Z,43.19
2023-05-02T09:05:21.280Z,42.76
2023-05-02T09:07:49.245Z,42.05
2023-05-02T09:10:16.695Z,43.37
2023-05-02T09:12:43.837Z,44.72
2023-05-02T09:15:20.795Z,42.72
2023-05-02T09:17:48.919Z,42.53
2023-05-02T09:20:16.772Z,43.19
2023-05-02T09:22:53.004Z,43.54
2023-05-02T09:25:21.185Z,43.35
2023-05-02T09:27:55.524Z,43.54
2023-05-02T09:30:24.265Z,44.21
2023-05-02T09:32:51.712Z,42.99
2023-05-02T09:35:23.982Z,43.01
2023-05-02T09:37:55.648Z,42.16
2023-05-02T09:40:23.736Z,41.54
2023-05-02T09:42:51.603Z,41.05
2023-05-02T09:45:28.361Z,41.91
2023-05-02T09:48:02.475Z,42.31
2023-05-02T09:50:38.684Z,43.44
2023-05-02T09:53:12.284Z,43.48
2023-05-02T09:55:39.845Z,43.07
2023-05-02T09:58:07.059Z,44.17
2023-05-02T10:00:48.382Z,44.27
2023-05-02T10:03:22.914Z,44.66
2023-05-02T10:05:51.543Z,45.57
2023-05-02T10:08:19.142Z,45.05
2023-05-02T10:10:50.778Z,43.88
2023-05-02T10:13:18.087Z,44.35
2023-05-02T10:15:49.561Z,44.00
2023-05-02T10:18:22.384Z,45.16
2023-05-02T10:21:05.652Z,45.08
2023-05-02T10:23:32.753Z,44.51
2023-05-02T10:26:00.377Z,44.48
2023-05-02T10:28:28.141Z,44.79
2023-05-02T10:30:55.583Z,44.26
2023-05-02T10:33:23.141Z,43.88
2023-05-02T10:35:51.647Z,43.73
2023-05-02T10:38:22.515Z,43.20
2023-05-02T10:40:58.146Z,42.91
2023-05-02T10:43:34.714Z,42.32
2023-05-02T10:46:03.852Z,42.18
2023-05-02T10:48:31.868Z,43.35
2023-05-02T10:51:01.914Z,44.43
2023-05-02T10:53:33.882Z,44.89
2023-05-02T10:56:18.238Z,44.28
2023-05-02T10:58:46.171Z,42.25
2023-05-02T11:01:28.988Z,42.44
2023-05-02T11:04:12.045Z,41.63
2023-05-02T11:06:57.155Z,41.39
2023-05-02T11:09:29.400Z,41.20
2023-05-02T11:12:00.676Z,41.22
2023-05-02T11:14:31.123Z,42.21
2023-05-02T11:17:01.446Z,43.96
2023-05-02T11:19:31.395Z,43.84
2023-05-02T11:22:28.284Z,42.70
2023-05-02T11:24:55.329Z,41.88
2023-05-02T11:27:33.654Z,42.05
2023-05-02T11:30:10.727Z,41.81
2023-05-02T11:32:44.167Z,41.75
2023-05-02T11:35:32.350Z,42.08
2023-05-02T11:38:06.867Z,41.56
2023-05-02T11:40:34.074Z,41.81
2023-05-02T11:43:01.546Z,41.71
2023-05-02T11:45:38.019Z,41.82
2023-05-02T11:48:07.169Z,42.08
2023-05-02T11:50:48.794Z,42.66
2023-05-02T11:53:29.356Z,42.97
2023-05-02T11:56:01.362Z,43.59
2023-05-02T11:58:35.351Z,43.77
2023-05-02T12:01:15.695Z,43.58
2023-05-02T12:03:43.136Z,44.67
2023-05-02T12:06:20.775Z,45.53
2023-05-02T12:08:49.589Z,45.33
2023-05-02T12:11:17.246Z,44.16
2023-05-02T12:13:48.456Z,43.64
2023-05-02T12:16:19.630Z,43.75
2023-05-02T12:18:47.571Z,44.00
2023-05-02T12:21:15.104Z,44.98
2023-05-02T12:23:42.544Z,44.56
2023-05-02T12:26:32.094Z,43.49
2023-05-02T12:29:04.774Z,43.25
2023-05-02T12:31:33.607Z,43.12
2023-05-02T12:34:03.855Z,42.59
2023-05-02T12:36:34.242Z,42.07
2023-05-02T12:39:02.302Z,41.68
2023-05-02T12:41:33.128Z,39.89
2023-05-02T12:44:01.176Z,38.10
2023-05-02T12:46:28.664Z,37.82
2023-05-02T12:49:06.803Z,37.56
2023-05-02T12:51:34.779Z,36.90
2023-05-02T12:54:03.661Z,36.53
2023-05-02T12:56:39.588Z,37.56
2023-05-02T12:59:08.165Z,40.66
2023-05-02T13:01:36.165Z,43.28
2023-05-02T13:04:06.343Z,43.21
2023-05-02T13:06:34.027Z,41.48
2023-05-02T13:09:03.291Z,40.22
2023-05-02T13:11:30.728Z,41.32
2023-05-02T13:14:00.194Z,44.34
2023-05-02T13:16:27.332Z,46.26
2023-05-02T13:18:54.787Z,46.51
2023-05-02T13:21:24.842Z,47.09
2023-05-02T13:23:55.563Z,48.04
2023-05-02T13:26:22.697Z,49.14
2023-05-02T13:28:52.404Z,49.73
2023-05-02T13:31:19.841Z,49.98
2023-05-02T13:33:47.012Z,50.70
2023-05-02T13:36:16.638Z,51.65
2023-05-02T13:38:44.900Z,52.43
2023-05-02T13:41:13.189Z,53.51
2023-05-02T13:43:40.866Z,53.39
2023-05-02T13:46:08.673Z,52.81
2023-05-02T13:48:38.662Z,51.87
2023-05-02T13:51:06.022Z,51.18
2023-05-02T13:53:33.482Z,51.63
2023-05-02T13:56:03.979Z,51.87
2023-05-02T13:58:34.806Z,52.20
2023-05-02T14:01:02.475Z,51.80
2023-05-02T14:03:29.964Z,51.07
2023-05-02T14:05:58.416Z,50.06
2023-05-02T14:08:49.613Z,49.72
2023-05-02T14:11:26.630Z,50.56
2023-05-02T14:14:05.959Z,51.05
2023-05-02T14:16:33.076Z,51.21
2023-05-02T14:19:00.178Z,51.23
2023-05-02T14:21:28.140Z,51.06
2023-05-02T14:23:55.255Z,50.49
2023-05-02T14:26:22.488Z,50.55
2023-05-02T14:28:49.892Z,51.25
2023-05-02T14:31:17.274Z,51.89
2023-05-02T14:33:45.706Z,51.74
2023-05-02T14:36:13.120Z,51.72
2023-05-02T14:38:46.524Z,51.41
2023-05-02T14:41:14.404Z,51.04
2023-05-02T14:43:41.471Z,51.52
2023-05-02T14:46:08.477Z,51.39
2023-05-02T14:48:35.574Z,50.96
2023-05-02T14:51:06.638Z,51.65
2023-05-02T14:53:33.836Z,51.91
2023-05-02T14:56:00.943Z,51.89
2023-05-02T14:58:28.233Z,52.32
2023-05-02T15:00:55.304Z,52.29
2023-05-02T15:03:27.471Z,52.53
2023-05-02T15:05:55.570Z,53.48
2023-05-02T15:08:22.862Z,53.81
2023-05-02T15:10:49.978Z,53.72
2023-05-02T15:13:17.003Z,53.60
2023-05-02T15:15:46.961Z,53.76
2023-05-02T15:18:13.823Z,54.26
2023-05-02T15:20:41.129Z,53.90
2023-05-02T15:23:08.001Z,53.63
2023-05-02T15:25:34.979Z,53.82
2023-05-02T15:28:03.204Z,53.59
2023-05-02T15:30:30.216Z,52.97
2023-05-02T15:32:57.116Z,52.83
2023-05-02T15:35:24.452Z,52.52
2023-05-02T15:37:51.446Z,52.00
2023-05-02T15:40:18.693Z,51.78
2023-05-02T15:42:46.070Z,51.60
2023-05-02T15:45:15.911Z,51.50
2023-05-02T15:47:42.905Z,51.44
2023-05-02T15:50:11.173Z,51.58
2023-05-02T15:52:38.359Z,51.44
2023-05-02T15:55:05.768Z,51.23
2023-05-02T15:57:32.821Z,51.14
2023-05-02T16:00:00.090Z,50.68
2023-05-02T16:02:27.342Z,50.32
2023-05-02T16:04:54.349Z,50.16
2023-05-02T16:07:21.414Z,51.07
2023-05-02T16:09:48.409Z,51.54
2023-05-02T16:12:15.463Z,51.49
2023-05-02T16:14:42.466Z,51.33
2023-05-02T16:17:09.584Z,51.03
2023-05-02T16:19:36.772Z,51.58
2023-05-02T16:22:03.717Z,52.10
2023-05-02T16:24:30.645Z,52.21
2023-05-02T16:26:57.725Z,52.25
2023-05-02T16:29:24.637Z,52.62
2023-05-02T16:31:51.647Z,52.94
2023-05-02T16:34:18.676Z,53.90
2023-05-02T16:36:46.845Z,54.88
2023-05-02T16:39:14.049Z,55.68
2023-05-02T16:41:41.087Z,56.38
2023-05-02T16:44:08.082Z,56.88
2023-05-02T16:46:35.053Z,57.13
2023-05-02T16:49:02.012Z,57.69
2023-05-02T16:51:31.372Z,57.87
2023-05-02T16:53:58.277Z,57.92
2023-05-02T16:56:25.422Z,58.04
2023-05-02T16:58:52.273Z,58.08
2023-05-02T17:01:23.731Z,58.44
2023-05-02T17:03:50.828Z,59.09
2023-05-02T17:06:17.750Z,59.50
2023-05-02T17:08:44.664Z,59.73
2023-05-02T17:11:12.170Z,59.79
2023-05-02T17:13:39.300Z,60.09
2023-05-02T17:16:08.433Z,60.23
2023-05-02T17:18:35.960Z,60.57
2023-05-02T17:21:04.062Z,60.34
2023-05-02T17:23:37.056Z,60.73
2023-05-02T17:26:05.654Z,60.37
2023-05-02T17:28:32.640Z,59.89
2023-05-02T17:31:00.024Z,59.35
2023-05-02T17:33:27.628Z,58.78
2023-05-02T17:35:54.618Z,58.28
2023-05-02T17:38:21.532Z,58.30
2023-05-02T17:40:48.630Z,58.27
2023-05-02T17:43:16.790Z,58.07
2023-05-02T17:45:43.785Z,58.38
2023-05-02T17:48:11.362Z,58.86
2023-05-02T17:50:41.804Z,59.07
2023-05-02T17:53:09.294Z,60.01
2023-05-02T17:55:36.589Z,60.48
2023-05-02T17:58:03.827Z,60.75
2023-05-02T18:00:30.874Z,61.10
2023-05-02T18:02:57.856Z,60.98
2023-05-02T18:05:26.371Z,61.31
2023-05-02T18:07:53.338Z,61.41
2023-05-02T18:10:20.251Z,61.25
2023-05-02T18:12:47.228Z,60.84
2023-05-02T18:15:14.226Z,60.62
2023-05-02T18:17:42.102Z,59.59
2023-05-02T18:20:10.213Z,58.73
2023-05-02T18:22:38.122Z,58.88
2023-05-02T18:25:05.781Z,58.82
2023-05-02T18:27:33.133Z,58.41
2023-05-02T18:30:00.210Z,58.20
2023-05-02T18:32:27.289Z,58.49
2023-05-02T18:34:54.157Z,58.50
2023-05-02T18:37:22.514Z,57.86
2023-05-02T18:39:49.679Z,57.97
2023-05-02T18:42:16.578Z,58.71
2023-05-02T18:44:43.426Z,58.03
2023-05-02T18:47:11.062Z,58.44
2023-05-02T18:49:38.016Z,58.73
2023-05-02T18:52:05.327Z,58.41
2023-05-02T18:54:33.644Z,57.25
2023-05-02T18:57:02.206Z,57.34
2023-05-02T18:59:29.791Z,57.64
2023-05-02T19:01:58.317Z,58.01
2023-05-02T19:04:25.297Z,58.27
2023-05-02T19:06:52.275Z,58.35
2023-05-02T19:09:19.926Z,58.80
2023-05-02T19:11:46.915Z,59.26
2023-05-02T19:14:14.170Z,60.29
2023-05-02T19:16:41.601Z,60.96
2023-05-02T19:19:08.560Z,60.88
2023-05-02T19:21:35.574Z,60.47
2023-05-02T19:24:02.920Z,60.81
2023-05-02T19:26:30.021Z,61.03
2023-05-02T19:28:57.276Z,62.31
2023-05-02T19:31:24.290Z,61.83
2023-05-02T19:33:51.903Z,62.06
2023-05-02T19:36:19.647Z,62.28
2023-05-02T19:38:59.575Z,62.25
2023-05-02T19:41:26.476Z,62.44
2023-05-02T19:43:53.400Z,62.59
2023-05-02T19:46:20.556Z,63.56
2023-05-02T19:48:47.657Z,64.48
2023-05-02T19:51:14.534Z,64.59
2023-05-02T19:53:41.468Z,65.13
2023-05-02T19:56:08.392Z,65.50
2023-05-02T19:58:35.544Z,65.65
2023-05-02T20:01:03.465Z,65.67
2023-05-02T20:03:30.637Z,65.36
2023-05-02T20:05:58.591Z,65.23
2023-05-02T20:08:28.086Z,64.84
2023-05-02T20:10:55.902Z,64.57
2023-05-02T20:13:22.850Z,64.27
2023-05-02T20:15:50.904Z,63.99
2023-05-02T20:18:17.854Z,63.58
2023-05-02T20:20:44.796Z,63.39
2023-05-02T20:23:12.235Z,63.26
2023-05-02T20:25:40.320Z,63.27
2023-05-02T20:28:08.087Z,63.58
2023-05-02T20:30:35.718Z,63.80
2023-05-02T20:33:14.116Z,63.90
2023-05-02T20:35:42.948Z,64.39
2023-05-02T20:38:10.005Z,64.27
2023-05-02T20:40:40.331Z,64.01
2023-05-02T20:43:07.914Z,63.84
2023-05-02T20:45:34.840Z,64.37
2023-05-02T20:48:01.755Z,64.24
2023-05-02T20:50:28.861Z,63.92
2023-05-02T20:52:55.841Z,63.00
2023-05-02T20:55:23.105Z,62.57
2023-05-02T20:57:53.310Z,62.07
2023-05-02T21:00:22.515Z,62.09
2023-05-02T21:02:49.795Z,62.25
2023-05-02T21:05:16.911Z,61.54
2023-05-02T21:07:44.833Z,60.94
2023-05-02T21:10:11.868Z,60.69
2023-05-02T21:12:38.882Z,60.37
2023-05-02T21:15:07.396Z,60.13
2023-05-02T21:17:34.406Z,59.58
2023-05-02T21:20:01.519Z,59.23
2023-05-02T21:22:28.709Z,59.02
2023-05-02T21:24:55.995Z,59.12
2023-05-02T21:27:23.224Z,59.22
2023-05-02T21:29:50.377Z,59.18
2023-05-02T21:32:17.403Z,59.08
2023-05-02T21:34:44.618Z,59.16
2023-05-02T21:37:11.634Z,59.62
2023-05-02T21:39:38.774Z,59.86
2023-05-02T21:42:06.102Z,60.12
2023-05-02T21:44:33.000Z,60.76
2023-05-02T21:47:00.064Z,61.38
2023-05-02T21:49:29.358Z,61.99
2023-05-02T21:51:58.324Z,62.84
2023-05-02T21:54:25.444Z,63.63
2023-05-02T21:56:53.858Z,64.23
2023-05-02T21:59:21.096Z,64.66
2023-05-02T22:01:48.184Z,65.14
2023-05-02T22:04:15.213Z,65.45
2023-05-02T22:06:43.021Z,65.74
2023-05-02T22:09:10.475Z,65.90
2023-05-02T22:11:37.482Z,66.17
2023-05-02T22:14:04.484Z,66.86
2023-05-02T22:16:31.489Z,67.80
2023-05-02T22:18:58.530Z,68.40
2023-05-02T22:21:25.452Z,69.11
2023-05-02T22:23:52.517Z,69.26
2023-05-02T22:26:19.734Z,69.56
2023-05-02T22:28:47.010Z,69.81
2023-05-02T22:31:15.497Z,70.10
2023-05-02T22:33:43.045Z,70.38
2023-05-02T22:36:10.051Z,71.04
2023-05-02T22:38:39.770Z,71.01
2023-05-02T22:41:06.920Z,71.65
2023-05-02T22:43:33.797Z,71.96
2023-05-02T22:46:00.869Z,71.96
2023-05-02T22:48:27.923Z,71.98
2023-05-02T22:50:55.268Z,72.12
2023-05-02T22:53:23.610Z,73.59
2023-05-02T22:55:51.217Z,74.06
2023-05-02T22:58:18.219Z,74.31
2023-05-02T23:00:45.181Z,74.46
2023-05-02T23:03:12.739Z,74.63
2023-05-02T23:05:39.911Z,74.86
2023-05-02T23:08:06.796Z,74.97
2023-05-02T23:10:33.873Z,75.08
2023-05-02T23:13:00.914Z,74.73
2023-05-02T23:15:27.820Z,74.85
2023-05-02T23:17:54.807Z,74.83
2023-05-02T23:20:23.206Z,74.54
2023-05-02T23:22:50.234Z,74.69
2023-05-02T23:25:17.310Z,74.48
2023-05-02T23:27:44.356Z,73.87
2023-05-02T23:30:11.700Z,73.37
2023-05-02T23:32:39.578Z,72.55
2023-05-02T23:35:07.242Z,71.35
2023-05-02T23:37:34.127Z,70.68
2023-05-02T23:40:01.486Z,70.08
2023-05-02T23:42:29.899Z,69.37
2023-05-02T23:44:57.956Z,68.76
2023-05-02T23:47:28.260Z,67.71
2023-05-02T23:49:55.262Z,66.92
2023-05-02T23:52:22.128Z,66.46
2023-05-02T23:54:49.204Z,65.75
2023-05-02T23:57:16.128Z,65.44
2023-05-02T23:59:43.013Z,65.58
